createdAt,value
2023-05-06T00:02:05.735Z,2.83
2023-05-06T00:04:35.245Z,4.33
2023-05-06T00:07:06.497Z,3.47
2023-05-06T00:09:37.544Z,3.27
2023-05-06T00:12:08.506Z,3.20
2023-05-06T00:14:38.501Z,3.83
2023-05-06T00:17:11.793Z,3.07
2023-05-06T00:19:41.427Z,2.60
2023-05-06T00:22:09.795Z,3.00
2023-05-06T00:24:41.537Z,3.17
2023-05-06T00:27:12.512Z,2.70
2023-05-06T00:29:46.160Z,3.10
2023-05-06T00:32:16.575Z,2.93
2023-05-06T00:34:45.218Z,3.13
2023-05-06T00:37:17.016Z,2.87
2023-05-06T00:39:45.421Z,2.97
2023-05-06T00:42:19.565Z,2.87
2023-05-06T00:44:52.198Z,2.63
2023-05-06T00:47:26.131Z,2.60
2023-05-06T00:49:54.804Z,2.90
2023-05-06T00:52:23.591Z,2.93
2023-05-06T00:54:52.201Z,2.80
2023-05-06T00:57:24.778Z,2.77
2023-05-06T00:59:53.458Z,2.40
2023-05-06T01:02:26.243Z,2.83
2023-05-06T01:04:56.739Z,3.00
2023-05-06T01:07:39.383Z,3.53
2023-05-06T01:10:23.474Z,4.00
2023-05-06T01:13:03.332Z,3.90
2023-05-06T01:15:38.067Z,4.00
2023-05-06T01:18:13.419Z,4.60
2023-05-06T01:20:44.619Z,3.33
2023-05-06T01:23:16.753Z,3.80
2023-05-06T01:25:47.576Z,3.10
2023-05-06T01:28:16.328Z,2.60
2023-05-06T01:30:51.726Z,3.00
2023-05-06T01:33:29.094Z,2.63
2023-05-06T01:36:07.828Z,2.73
2023-05-06T01:38:48.313Z,3.23
2023-05-06T01:41:19.427Z,2.77
2023-05-06T01:43:52.997Z,2.23
2023-05-06T01:46:23.340Z,2.80
2023-05-06T01:48:56.920Z,3.10
2023-05-06T01:51:25.215Z,2.57
2023-05-06T01:53:58.795Z,2.30
2023-05-06T01:56:30.264Z,2.90
2023-05-06T01:59:00.437Z,2.50
2023-05-06T02:01:35.656Z,2.67
2023-05-06T02:04:04.755Z,2.93
2023-05-06T02:06:33.507Z,2.77
2023-05-06T02:09:05.620Z,2.33
2023-05-06T02:11:35.397Z,2.70
2023-05-06T02:14:07.195Z,2.17
2023-05-06T02:16:35.341Z,2.87
2023-05-06T02:19:03.689Z,2.47
2023-05-06T02:21:32.578Z,2.30
2023-05-06T02:24:15.480Z,2.13
2023-05-06T02:26:43.648Z,2.33
2023-05-06T02:29:13.044Z,2.00
2023-05-06T02:31:41.157Z,2.60
2023-05-06T02:34:10.468Z,2.47
2023-05-06T02:36:40.734Z,2.50
2023-05-06T02:39:12.807Z,2.50
2023-05-06T02:41:41.279Z,2.20
2023-05-06T02:44:09.249Z,2.40
2023-05-06T02:46:37.429Z,2.20
2023-05-06T02:49:05.596Z,2.03
2023-05-06T02:51:35.306Z,2.37
2023-05-06T02:54:06.476Z,2.30
2023-05-06T02:56:37.230Z,2.70
2023-05-06T02:59:06.041Z,2.60
2023-05-06T03:01:34.677Z,2.50
2023-05-06T03:04:03.795Z,2.77
2023-05-06T03:06:33.985Z,2.40
2023-05-06T03:09:02.112Z,2.50
2023-05-06T03:11:31.693Z,2.63
2023-05-06T03:14:02.329Z,2.37
2023-05-06T03:16:30.883Z,2.30
2023-05-06T03:18:59.893Z,2.23
2023-05-06T03:21:29.976Z,2.57
2023-05-06T03:23:59.621Z,2.50
2023-05-06T03:26:27.776Z,2.30
2023-05-06T03:28:56.318Z,1.93
2023-05-06T03:31:27.732Z,2.00
2023-05-06T03:33:56.622Z,2.70
2023-05-06T03:36:25.570Z,1.90
2023-05-06T03:38:54.772Z,2.50
2023-05-06T03:41:26.664Z,2.20
2023-05-06T03:43:56.650Z,2.27
2023-05-06T03:46:26.817Z,2.37
2023-05-06T03:48:55.701Z,2.40
2023-05-06T03:51:23.965Z,1.93
2023-05-06T03:53:54.907Z,2.70
2023-05-06T03:56:30.589Z,2.70
2023-05-06T03:58:58.826Z,2.73
2023-05-06T04:01:30.215Z,2.10
2023-05-06T04:03:59.400Z,2.20
2023-05-06T04:06:31.225Z,2.40
2023-05-06T04:08:59.358Z,2.00
2023-05-06T04:11:29.875Z,1.87
2023-05-06T04:13:58.664Z,2.20
2023-05-06T04:16:28.179Z,2.20
2023-05-06T04:19:06.803Z,2.10
2023-05-06T04:21:38.633Z,2.80
2023-05-06T04:24:07.933Z,2.23
2023-05-06T04:26:38.837Z,2.30
2023-05-06T04:29:08.998Z,2.47
2023-05-06T04:31:38.686Z,2.30
2023-05-06T04:34:10.896Z,2.50
2023-05-06T04:36:40.772Z,1.90
2023-05-06T04:39:10.547Z,2.50
2023-05-06T04:41:39.243Z,2.53
2023-05-06T04:44:08.260Z,3.17
2023-05-06T04:46:37.818Z,2.50
2023-05-06T04:49:07.739Z,2.40
2023-05-06T04:51:36.205Z,2.20
2023-05-06T04:54:04.761Z,2.33
2023-05-06T04:56:35.796Z,2.50
2023-05-06T04:59:04.012Z,2.10
2023-05-06T05:01:32.877Z,2.63
2023-05-06T05:04:01.854Z,2.30
2023-05-06T05:06:34.585Z,2.40
2023-05-06T05:09:17.410Z,2.20
2023-05-06T05:11:53.246Z,2.10
2023-05-06T05:14:21.669Z,2.30
2023-05-06T05:16:54.574Z,2.60
2023-05-06T05:19:22.929Z,2.40
2023-05-06T05:21:55.062Z,2.47
2023-05-06T05:24:26.610Z,2.40
2023-05-06T05:26:57.801Z,2.37
2023-05-06T05:29:32.125Z,2.60
2023-05-06T05:32:01.882Z,2.57
2023-05-06T05:34:37.743Z,2.57
2023-05-06T05:37:15.069Z,2.33
2023-05-06T05:39:44.400Z,3.07
2023-05-06T05:42:12.437Z,2.30
2023-05-06T05:44:43.245Z,2.70
2023-05-06T05:47:14.516Z,2.37
2023-05-06T05:49:42.909Z,2.63
2023-05-06T05:52:12.957Z,2.97
2023-05-06T05:54:41.428Z,2.40
2023-05-06T05:57:09.877Z,2.77
2023-05-06T05:59:39.479Z,2.67
2023-05-06T06:02:07.869Z,2.53
2023-05-06T06:04:39.074Z,2.90
2023-05-06T06:07:08.249Z,2.40
2023-05-06T06:09:47.445Z,2.57
2023-05-06T06:12:16.300Z,2.87
2023-05-06T06:14:48.411Z,2.37
2023-05-06T06:17:18.209Z,2.87
2023-05-06T06:19:48.030Z,2.53
2023-05-06T06:22:16.874Z,2.10
2023-05-06T06:24:48.659Z,1.90
2023-05-06T06:27:20.325Z,2.97
2023-05-06T06:29:49.295Z,2.00
2023-05-06T06:32:23.087Z,2.77
2023-05-06T06:34:51.541Z,2.00
2023-05-06T06:37:20.433Z,2.20
2023-05-06T06:39:50.142Z,1.87
2023-05-06T06:42:18.444Z,1.97
2023-05-06T06:44:48.256Z,1.73
2023-05-06T06:47:17.537Z,1.97
2023-05-06T06:49:46.081Z,2.00
2023-05-06T06:52:14.408Z,1.77
2023-05-06T06:54:42.549Z,1.73
2023-05-06T06:57:12.461Z,1.67
2023-05-06T06:59:41.821Z,1.93
2023-05-06T07:02:10.273Z,1.63
2023-05-06T07:04:43.319Z,1.77
2023-05-06T07:07:14.617Z,1.30
2023-05-06T07:09:55.433Z,1.60
2023-05-06T07:12:27.150Z,1.20
2023-05-06T07:14:55.691Z,1.90
2023-05-06T07:17:24.679Z,1.20
2023-05-06T07:19:56.073Z,1.40
2023-05-06T07:22:26.810Z,1.53
2023-05-06T07:24:59.295Z,1.63
2023-05-06T07:27:30.724Z,1.70
2023-05-06T07:29:59.093Z,1.20
2023-05-06T07:32:27.789Z,1.37
2023-05-06T07:34:56.743Z,1.43
2023-05-06T07:37:25.117Z,1.30
2023-05-06T07:39:53.667Z,1.57
2023-05-06T07:42:23.584Z,1.70
2023-05-06T07:44:54.219Z,2.10
2023-05-06T07:47:30.911Z,1.40
2023-05-06T07:50:02.056Z,0.93
2023-05-06T07:52:30.224Z,1.53
2023-05-06T07:54:59.332Z,1.30
2023-05-06T07:57:28.505Z,1.90
2023-05-06T07:59:58.566Z,1.07
2023-05-06T08:02:28.112Z,1.33
2023-05-06T08:04:57.320Z,1.60
2023-05-06T08:07:34.634Z,1.30
2023-05-06T08:10:02.975Z,1.10
2023-05-06T08:12:31.895Z,1.40
2023-05-06T08:15:01.802Z,1.00
2023-05-06T08:17:34.706Z,1.30
2023-05-06T08:20:03.418Z,1.13
2023-05-06T08:22:34.882Z,1.50
2023-05-06T08:25:04.860Z,1.50
2023-05-06T08:27:35.557Z,1.13
2023-05-06T08:30:06.181Z,1.50
2023-05-06T08:32:36.626Z,1.30
2023-05-06T08:35:05.481Z,0.93
2023-05-06T08:37:36.525Z,1.50
2023-05-06T08:40:05.585Z,1.20
2023-05-06T08:42:38.237Z,1.00
2023-05-06T08:45:22.792Z,1.27
2023-05-06T08:47:51.385Z,1.20
2023-05-06T08:50:22.231Z,1.17
2023-05-06T08:52:52.815Z,1.10
2023-05-06T08:55:28.987Z,1.50
2023-05-06T08:57:58.718Z,1.20
2023-05-06T09:00:35.013Z,1.30
2023-05-06T09:03:03.125Z,1.70
2023-05-06T09:05:31.515Z,1.17
2023-05-06T09:08:00.019Z,1.10
2023-05-06T09:10:33.646Z,1.23
2023-05-06T09:13:01.941Z,1.30
2023-05-06T09:15:44.501Z,1.20
2023-05-06T09:18:13.021Z,1.10
2023-05-06T09:20:43.472Z,1.20
2023-05-06T09:23:13.044Z,0.93
2023-05-06T09:25:41.201Z,0.80
2023-05-06T09:28:12.761Z,1.40
2023-05-06T09:30:47.941Z,1.13
2023-05-06T09:33:22.720Z,1.00
2023-05-06T09:35:51.624Z,1.27
2023-05-06T09:38:21.573Z,0.97
2023-05-06T09:40:52.103Z,1.30
2023-05-06T09:43:21.348Z,1.17
2023-05-06T09:46:01.632Z,0.97
2023-05-06T09:48:33.124Z,1.90
2023-05-06T09:51:06.823Z,1.03
2023-05-06T09:53:38.384Z,1.10
2023-05-06T09:56:12.329Z,1.83
2023-05-06T09:58:45.384Z,1.50
2023-05-06T10:01:32.447Z,0.90
2023-05-06T10:04:08.357Z,1.20
2023-05-06T10:06:39.552Z,1.17
2023-05-06T10:09:09.337Z,1.10
2023-05-06T10:11:40.090Z,1.03
2023-05-06T10:14:13.895Z,1.20
2023-05-06T10:16:49.803Z,1.80
2023-05-06T10:19:24.466Z,1.50
2023-05-06T10:21:58.390Z,1.60
2023-05-06T10:24:34.981Z,1.40
2023-05-06T10:27:09.644Z,1.20
2023-05-06T10:29:43.353Z,1.20
2023-05-06T10:32:14.058Z,1.17
2023-05-06T10:34:53.899Z,1.60
2023-05-06T10:37:26.217Z,1.47
2023-05-06T10:39:57.544Z,1.03
2023-05-06T10:42:29.103Z,1.20
2023-05-06T10:45:06.689Z,1.30
2023-05-06T10:48:15.169Z,1.40
2023-05-06T10:50:44.578Z,1.40
2023-05-06T10:53:14.588Z,1.10
2023-05-06T10:55:45.686Z,1.40
2023-05-06T10:58:16.490Z,1.50
2023-05-06T11:00:55.224Z,1.67
2023-05-06T11:03:26.164Z,1.57
2023-05-06T11:05:54.950Z,1.50
2023-05-06T11:08:29.385Z,1.60
2023-05-06T11:11:01.452Z,2.20
2023-05-06T11:13:31.099Z,1.80
2023-05-06T11:16:00.424Z,1.73
2023-05-06T11:18:48.059Z,1.77
2023-05-06T11:21:43.481Z,1.37
2023-05-06T11:24:15.630Z,1.50
2023-05-06T11:26:45.595Z,1.80
2023-05-06T11:29:18.954Z,1.40
2023-05-06T11:31:48.605Z,1.80
2023-05-06T11:34:23.759Z,1.70
2023-05-06T11:37:01.394Z,1.83
2023-05-06T11:39:33.436Z,1.20
2023-05-06T11:42:09.130Z,2.07
2023-05-06T11:44:39.525Z,1.40
2023-05-06T11:47:10.789Z,1.70
2023-05-06T11:49:44.599Z,1.53
2023-05-06T11:52:15.153Z,1.90
2023-05-06T11:54:45.812Z,1.80
2023-05-06T11:57:15.340Z,1.73
2023-05-06T11:59:46.554Z,2.10
2023-05-06T12:02:17.357Z,1.90
2023-05-06T12:04:50.177Z,2.00
2023-05-06T12:07:21.654Z,1.67
2023-05-06T12:09:52.192Z,2.03
2023-05-06T12:12:23.417Z,2.03
2023-05-06T12:14:54.157Z,1.67
2023-05-06T12:17:27.615Z,1.87
2023-05-06T12:19:58.167Z,1.83
2023-05-06T12:22:26.469Z,1.60
2023-05-06T12:24:55.516Z,1.67
2023-05-06T12:27:36.137Z,1.80
2023-05-06T12:30:06.680Z,2.07
2023-05-06T12:32:37.029Z,2.20
2023-05-06T12:35:09.664Z,1.93
2023-05-06T12:37:39.063Z,1.80
2023-05-06T12:40:19.574Z,2.20
2023-05-06T12:42:55.661Z,1.63
2023-05-06T12:45:26.040Z,2.47
2023-05-06T12:47:56.777Z,2.00
2023-05-06T12:50:37.338Z,2.40
2023-05-06T12:53:07.831Z,2.00
2023-05-06T12:55:38.058Z,2.13
2023-05-06T12:58:17.816Z,2.73
2023-05-06T13:00:47.852Z,2.20
2023-05-06T13:03:19.613Z,2.50
2023-05-06T13:05:53.605Z,2.83
2023-05-06T13:08:23.619Z,2.57
2023-05-06T13:10:53.065Z,2.80
2023-05-06T13:13:21.742Z,2.80
2023-05-06T13:15:52.675Z,2.47
2023-05-06T13:18:21.378Z,3.20
2023-05-06T13:20:54.841Z,3.27
2023-05-06T13:23:22.911Z,2.67
2023-05-06T13:26:03.369Z,3.03
2023-05-06T13:28:35.721Z,2.50
2023-05-06T13:31:06.779Z,3.67
2023-05-06T13:33:36.184Z,2.77
2023-05-06T13:36:10.093Z,2.63
2023-05-06T13:38:40.066Z,2.67
2023-05-06T13:41:09.234Z,3.00
2023-05-06T13:43:37.565Z,2.73
2023-05-06T13:46:05.980Z,2.40
2023-05-06T13:48:34.741Z,3.03
2023-05-06T13:51:03.153Z,2.60
2023-05-06T13:53:37.241Z,2.60
2023-05-06T13:56:06.349Z,2.80
2023-05-06T13:58:36.355Z,3.20
2023-05-06T14:01:06.189Z,2.83
2023-05-06T14:03:43.363Z,2.57
2023-05-06T14:06:17.201Z,2.47
2023-05-06T14:08:46.962Z,2.97
2023-05-06T14:11:18.069Z,2.50
2023-05-06T14:13:46.362Z,2.90
2023-05-06T14:16:18.309Z,3.33
2023-05-06T14:18:46.632Z,2.63
2023-05-06T14:21:18.017Z,3.03
2023-05-06T14:23:48.198Z,2.80
2023-05-06T14:26:17.021Z,2.87
2023-05-06T14:28:48.955Z,2.80
2023-05-06T14:31:18.303Z,2.50
2023-05-06T14:33:47.775Z,2.43
2023-05-06T14:36:20.559Z,2.27
2023-05-06T14:38:50.468Z,2.67
2023-05-06T14:41:18.928Z,2.97
2023-05-06T14:43:47.687Z,2.60
2023-05-06T14:46:18.003Z,2.40
2023-05-06T14:48:47.314Z,3.00
2023-05-06T14:51:15.736Z,3.20
2023-05-06T14:53:46.938Z,2.10
2023-05-06T14:56:17.315Z,2.80
2023-05-06T14:58:46.306Z,2.40
2023-05-06T15:01:15.749Z,2.83
2023-05-06T15:03:45.527Z,2.90
2023-05-06T15:06:14.081Z,2.47
2023-05-06T15:08:42.895Z,2.60
2023-05-06T15:11:11.704Z,3.20
2023-05-06T15:13:41.999Z,3.53
2023-05-06T15:16:11.610Z,2.63
2023-05-06T15:18:41.919Z,3.47
2023-05-06T15:21:11.433Z,3.30
2023-05-06T15:23:39.964Z,2.90
2023-05-06T15:26:08.084Z,2.93
2023-05-06T15:28:37.697Z,3.07
2023-05-06T15:31:09.015Z,2.97
2023-05-06T15:33:38.030Z,3.13
2023-05-06T15:36:08.055Z,3.83
2023-05-06T15:39:00.152Z,3.30
2023-05-06T15:41:34.318Z,3.50
2023-05-06T15:44:06.526Z,3.53
2023-05-06T15:46:36.516Z,3.57
2023-05-06T15:51:38.347Z,3.47
2023-05-06T15:54:07.076Z,4.50
2023-05-06T15:56:40.731Z,3.87
2023-05-06T15:59:09.365Z,3.73
2023-05-06T16:02:08.449Z,3.50
2023-05-06T16:04:29.805Z,3.27
2023-05-06T16:06:59.158Z,3.10
2023-05-06T16:09:27.870Z,4.07
2023-05-06T16:11:58.295Z,3.43
2023-05-06T16:14:27.274Z,3.70
2023-05-06T16:17:07.998Z,3.53
2023-05-06T16:19:36.518Z,3.47
2023-05-06T16:22:06.552Z,3.50
2023-05-06T16:24:35.318Z,3.97
2023-05-06T16:27:05.553Z,4.10
2023-05-06T16:29:34.044Z,3.50
2023-05-06T16:32:04.306Z,3.50
2023-05-06T16:34:33.376Z,3.47
2023-05-06T16:37:02.209Z,3.90
2023-05-06T16:39:33.684Z,3.13
2023-05-06T16:42:04.455Z,3.47
2023-05-06T16:44:33.382Z,3.60
2023-05-06T16:47:02.504Z,3.33
2023-05-06T16:49:34.280Z,3.97
2023-05-06T16:52:02.407Z,3.70
2023-05-06T16:54:44.073Z,3.70
2023-05-06T16:57:13.453Z,3.93
2023-05-06T16:59:43.249Z,3.93
2023-05-06T17:02:12.037Z,3.63
2023-05-06T17:04:44.049Z,3.20
2023-05-06T17:07:14.004Z,3.90
2023-05-06T17:09:46.186Z,3.37
2023-05-06T17:12:15.721Z,3.30
2023-05-06T17:14:44.816Z,3.90
2023-05-06T17:17:16.727Z,3.43
2023-05-06T17:19:54.713Z,4.07
2023-05-06T17:22:28.566Z,3.63
2023-05-06T17:24:57.875Z,3.50
2023-05-06T17:27:26.567Z,4.10
2023-05-06T17:29:54.944Z,4.10
2023-05-06T17:32:25.008Z,3.40
2023-05-06T17:34:59.234Z,4.07
2023-05-06T17:37:27.945Z,4.13
2023-05-06T17:39:59.927Z,3.93
2023-05-06T17:42:29.526Z,3.70
2023-05-06T17:44:58.311Z,4.20
2023-05-06T17:47:32.116Z,3.63
2023-05-06T17:50:02.411Z,4.07
2023-05-06T17:52:31.248Z,3.70
2023-05-06T17:55:15.682Z,4.00
2023-05-06T17:57:45.413Z,4.10
2023-05-06T18:00:15.307Z,4.37
2023-05-06T18:02:45.662Z,4.47
2023-05-06T18:05:15.970Z,3.73
2023-05-06T18:07:47.110Z,4.37
2023-05-06T18:10:18.731Z,4.10
2023-05-06T18:12:48.869Z,4.23
2023-05-06T18:15:19.071Z,4.07
2023-05-06T18:17:48.153Z,4.13
2023-05-06T18:20:20.547Z,4.10
2023-05-06T18:22:51.119Z,4.23
2023-05-06T18:25:20.255Z,4.07
2023-05-06T18:27:50.691Z,4.27
2023-05-06T18:30:18.996Z,4.40
2023-05-06T18:32:52.237Z,3.80
2023-05-06T18:35:31.514Z,3.60
2023-05-06T18:38:00.023Z,3.53
2023-05-06T18:40:28.416Z,4.03
2023-05-06T18:43:00.337Z,4.10
2023-05-06T18:45:31.801Z,3.70
2023-05-06T18:48:02.276Z,3.97
2023-05-06T18:50:32.523Z,4.63
2023-05-06T18:53:01.605Z,3.87
2023-05-06T18:55:30.544Z,4.17
2023-05-06T18:57:58.853Z,3.53
2023-05-06T19:00:30.928Z,3.80
2023-05-06T19:03:00.290Z,3.40
2023-05-06T19:05:28.822Z,3.97
2023-05-06T19:07:59.635Z,5.30
2023-05-06T19:10:27.664Z,3.70
2023-05-06T19:12:56.242Z,3.63
2023-05-06T19:15:28.653Z,3.30
2023-05-06T19:17:57.493Z,3.43
2023-05-06T19:20:25.936Z,4.00
2023-05-06T19:23:20.426Z,4.20
2023-05-06T19:25:48.736Z,3.17
2023-05-06T19:28:17.064Z,3.93
2023-05-06T19:30:45.773Z,3.73
2023-05-06T19:33:14.375Z,3.97
2023-05-06T19:35:45.626Z,4.60
2023-05-06T19:38:14.475Z,4.87
2023-05-06T19:40:45.786Z,4.07
2023-05-06T19:43:17.893Z,3.73
2023-05-06T19:45:46.081Z,3.50
2023-05-06T19:48:14.907Z,3.53
2023-05-06T19:50:45.922Z,3.60
2023-05-06T19:53:15.258Z,3.30
2023-05-06T19:55:44.951Z,4.40
2023-05-06T19:58:14.305Z,3.50
2023-05-06T20:00:43.963Z,3.10
2023-05-06T20:03:12.508Z,3.27
2023-05-06T20:05:40.851Z,3.37
2023-05-06T20:08:11.012Z,4.10
2023-05-06T20:10:40.981Z,3.97
2023-05-06T20:13:12.041Z,3.30
2023-05-06T20:15:43.386Z,3.70
2023-05-06T20:18:12.358Z,3.87
2023-05-06T20:20:41.468Z,3.97
2023-05-06T20:23:10.334Z,4.20
2023-05-06T20:25:43.131Z,4.00
2023-05-06T20:28:12.846Z,3.40
2023-05-06T20:30:41.900Z,4.40
2023-05-06T20:33:13.788Z,3.37
2023-05-06T20:35:46.004Z,3.63
2023-05-06T20:38:18.977Z,3.10
2023-05-06T20:40:51.054Z,4.03
2023-05-06T20:43:21.218Z,3.77
2023-05-06T20:49:15.920Z,2.70
2023-05-06T20:51:46.337Z,3.60
2023-05-06T20:54:28.421Z,4.27
2023-05-06T20:57:03.407Z,4.00
2023-05-06T21:03:18.110Z,3.97
2023-05-06T21:09:10.668Z,3.87
2023-05-06T21:11:38.462Z,3.87
2023-05-06T21:14:06.257Z,4.23
2023-05-06T21:16:35.312Z,3.80
2023-05-06T21:19:03.090Z,3.87
2023-05-06T21:21:32.501Z,4.10
2023-05-06T21:24:00.360Z,3.80
2023-05-06T21:26:28.263Z,3.93
2023-05-06T21:28:56.092Z,3.83
2023-05-06T21:31:25.218Z,3.50
2023-05-06T21:33:56.450Z,3.80
2023-05-06T21:36:24.263Z,3.80
2023-05-06T21:39:01.245Z,3.97
2023-05-06T21:41:29.327Z,3.73
2023-05-06T21:43:57.184Z,3.57
2023-05-06T21:46:25.111Z,3.90
2023-05-06T21:48:54.271Z,3.97
2023-05-06T21:51:21.997Z,3.93
2023-05-06T21:53:50.419Z,4.10
2023-05-06T21:56:18.509Z,3.93
2023-05-06T21:58:46.422Z,3.57
2023-05-06T22:01:14.407Z,3.63
2023-05-06T22:03:42.448Z,3.87
2023-05-06T22:06:11.898Z,3.50
2023-05-06T22:08:40.124Z,3.63
2023-05-06T22:11:08.156Z,3.23
2023-05-06T22:13:36.253Z,3.53
2023-05-06T22:16:04.398Z,3.47
2023-05-06T22:18:32.321Z,3.00
2023-05-06T22:21:00.581Z,3.40
2023-05-06T22:23:29.771Z,3.57
2023-05-06T22:25:58.576Z,3.57
2023-05-06T22:28:27.555Z,3.00
2023-05-06T22:30:55.435Z,3.80
2023-05-06T22:33:23.463Z,3.17
2023-05-06T22:35:51.308Z,3.03
2023-05-06T22:38:19.244Z,3.33
2023-05-06T22:40:48.425Z,3.23
2023-05-06T22:43:16.313Z,2.63
2023-05-06T22:45:44.239Z,2.80
2023-05-06T22:48:12.208Z,3.10
2023-05-06T22:50:40.117Z,2.83
2023-05-06T22:53:14.857Z,3.03
2023-05-06T22:55:43.698Z,3.00
2023-05-06T22:58:12.997Z,3.03
2023-05-06T23:00:41.074Z,2.57
2023-05-06T23:03:09.114Z,2.80
2023-05-06T23:05:37.018Z,2.57
2023-05-06T23:08:05.083Z,3.03
2023-05-06T23:10:33.009Z,2.60
2023-05-06T23:13:02.033Z,2.53
2023-05-06T23:15:31.387Z,2.47
2023-05-06T23:17:59.307Z,2.80
2023-05-06T23:20:27.247Z,3.03
2023-05-06T23:22:55.073Z,2.90
2023-05-06T23:25:23.016Z,2.90
2023-05-06T23:27:50.790Z,3.53
2023-05-06T23:30:18.665Z,2.33
2023-05-06T23:32:48.568Z,2.67
2023-05-06T23:35:16.423Z,2.30
2023-05-06T23:37:44.320Z,2.87
2023-05-06T23:40:14.035Z,2.87
2023-05-06T23:42:41.916Z,2.63
2023-05-06T23:45:11.784Z,3.10
2023-05-06T23:47:39.841Z,2.47
2023-05-06T23:50:09.875Z,3.00
2023-05-06T23:52:38.305Z,3.40
2023-05-06T23:55:07.321Z,2.50
2023-05-06T23:57:35.127Z,2.83
